createdAt,value
2022-08-24T00:02:00.368Z,5.10
2022-08-24T00:04:28.238Z,4.10
2022-08-24T00:06:55.289Z,4.85
2022-08-24T00:09:25.243Z,4.30
2022-08-24T00:11:55.670Z,5.43
2022-08-24T00:14:27.630Z,5.03
2022-08-24T00:16:54.667Z,5.10
2022-08-24T00:19:21.628Z,4.50
2022-08-24T00:24:21.022Z,4.07
2022-08-24T00:26:54.063Z,4.25
2022-08-24T00:29:22.228Z,4.20
2022-08-24T00:31:49.672Z,3.85
2022-08-24T00:34:17.936Z,4.13
2022-08-24T00:36:49.965Z,4.40
2022-08-24T00:39:19.464Z,4.35
2022-08-24T00:41:48.578Z,4.05
2022-08-24T00:46:54.028Z,3.80
2022-08-24T00:49:26.102Z,4.35
2022-08-24T00:52:03.521Z,4.50
2022-08-24T00:54:32.909Z,4.40
2022-08-24T00:57:06.200Z,3.95
2022-08-24T00:59:50.748Z,4.50
2022-08-24T01:02:27.549Z,4.18
2022-08-24T01:05:00.851Z,4.50
2022-08-24T01:07:29.556Z,5.00
2022-08-24T01:10:01.281Z,4.78
2022-08-24T01:12:30.830Z,4.68
2022-08-24T01:14:59.366Z,5.30
2022-08-24T01:17:47.684Z,4.85
2022-08-24T01:20:14.663Z,4.82
2022-08-24T01:22:56.518Z,5.15
2022-08-24T01:25:25.640Z,5.93
2022-08-24T01:27:55.005Z,6.30
2022-08-24T01:30:30.601Z,5.15
2022-08-24T01:33:07.439Z,5.13
2022-08-24T01:35:36.540Z,4.88
2022-08-24T01:40:36.539Z,5.57
2022-08-24T01:43:05.999Z,5.35
2022-08-24T01:45:33.433Z,6.10
2022-08-24T01:48:01.178Z,5.75
2022-08-24T01:50:29.363Z,6.30
2022-08-24T01:53:05.434Z,7.28
2022-08-24T01:55:33.579Z,6.15
2022-08-24T01:58:01.229Z,6.45
2022-08-24T02:00:29.831Z,6.30
2022-08-24T02:02:57.188Z,6.20
2022-08-24T02:05:24.755Z,6.05
2022-08-24T02:07:54.771Z,5.75
2022-08-24T02:10:21.709Z,6.03
2022-08-24T02:17:57.605Z,5.13
2022-08-24T02:20:28.027Z,6.25
2022-08-24T02:22:55.287Z,5.55
2022-08-24T02:25:22.323Z,6.25
2022-08-24T02:27:49.090Z,6.03
2022-08-24T02:30:16.865Z,6.20
2022-08-24T02:32:43.785Z,7.57
2022-08-24T02:35:13.256Z,7.38
2022-08-24T02:37:44.879Z,6.70
2022-08-24T02:40:14.790Z,7.15
2022-08-24T02:42:42.101Z,8.60
2022-08-24T02:45:14.592Z,7.57
2022-08-24T02:47:41.553Z,8.77
2022-08-24T02:50:11.095Z,7.78
2022-08-24T02:52:44.622Z,8.02
2022-08-24T02:55:15.041Z,8.00
2022-08-24T02:57:42.194Z,6.90
2022-08-24T03:00:14.926Z,8.07
2022-08-24T03:02:53.528Z,7.50
2022-08-24T03:05:24.005Z,7.07
2022-08-24T03:07:54.960Z,7.60
2022-08-24T03:10:29.416Z,6.80
2022-08-24T03:13:01.564Z,7.13
2022-08-24T03:15:31.687Z,7.30
2022-08-24T03:18:09.265Z,7.18
2022-08-24T03:20:36.413Z,7.03
2022-08-24T03:23:12.625Z,7.07
2022-08-24T03:25:45.839Z,6.10
2022-08-24T03:28:18.706Z,6.75
2022-08-24T03:30:58.844Z,7.03
2022-08-24T03:33:34.061Z,6.38
2022-08-24T03:36:14.351Z,6.70
2022-08-24T03:38:49.286Z,7.20
2022-08-24T03:41:40.212Z,6.53
2022-08-24T03:44:23.286Z,7.55
2022-08-24T03:46:59.773Z,6.72
2022-08-24T03:49:35.942Z,7.43
2022-08-24T03:52:30.030Z,7.72
2022-08-24T03:55:15.160Z,7.72
2022-08-24T03:57:54.141Z,8.05
2022-08-24T04:00:21.191Z,8.95
2022-08-24T04:02:56.529Z,7.72
2022-08-24T04:05:28.291Z,7.47
2022-08-24T04:08:02.014Z,8.00
2022-08-24T04:10:28.832Z,8.35
2022-08-24T04:12:57.818Z,8.52
2022-08-24T04:15:30.065Z,8.05
2022-08-24T04:17:58.141Z,9.35
2022-08-24T04:20:28.711Z,9.40
2022-08-24T04:25:25.276Z,9.43
2022-08-24T04:27:54.829Z,8.40
2022-08-24T04:30:22.768Z,9.80
2022-08-24T04:33:03.221Z,8.07
2022-08-24T04:35:30.502Z,8.57
2022-08-24T04:38:00.506Z,8.05
2022-08-24T04:40:27.508Z,8.32
2022-08-24T04:42:58.810Z,8.40
2022-08-24T04:45:28.011Z,8.80
2022-08-24T04:47:55.017Z,8.00
2022-08-24T04:52:55.404Z,8.93
2022-08-24T04:55:22.641Z,9.10
2022-08-24T04:57:54.192Z,7.95
2022-08-24T05:00:21.679Z,8.00
2022-08-24T05:02:50.977Z,7.13
2022-08-24T05:05:17.971Z,8.07
2022-08-24T05:07:48.025Z,8.18
2022-08-24T05:10:14.915Z,7.97
2022-08-24T05:15:13.673Z,7.75
2022-08-24T05:17:46.775Z,9.32
2022-08-24T05:20:23.544Z,7.38
2022-08-24T05:22:55.962Z,7.78
2022-08-24T05:25:23.645Z,6.78
2022-08-24T05:27:51.599Z,7.05
2022-08-24T05:30:19.271Z,6.68
2022-08-24T05:32:49.380Z,6.45
2022-08-24T05:35:18.797Z,6.80
2022-08-24T05:37:46.677Z,7.60
2022-08-24T05:40:16.510Z,6.80
2022-08-24T05:42:48.379Z,6.50
2022-08-24T05:45:18.291Z,6.53
2022-08-24T05:47:45.405Z,6.55
2022-08-24T05:50:44.696Z,7.90
2022-08-24T05:53:13.638Z,6.65
2022-08-24T05:55:40.939Z,6.38
2022-08-24T05:58:11.075Z,6.25
2022-08-24T06:00:45.652Z,5.65
2022-08-24T06:03:16.494Z,5.40
2022-08-24T06:05:53.097Z,5.78
2022-08-24T06:08:24.607Z,6.07
2022-08-24T06:10:51.444Z,5.68
2022-08-24T06:13:18.800Z,5.68
2022-08-24T06:16:11.053Z,5.55
2022-08-24T06:18:39.391Z,5.05
2022-08-24T06:21:10.554Z,5.32
2022-08-24T06:23:41.307Z,5.10
2022-08-24T06:26:27.774Z,5.07
2022-08-24T06:28:55.540Z,4.82
2022-08-24T06:31:24.507Z,4.30
2022-08-24T06:33:54.766Z,4.30
2022-08-24T06:36:24.408Z,3.85
2022-08-24T06:38:52.700Z,4.72
2022-08-24T06:41:20.820Z,3.97
2022-08-24T06:43:49.755Z,3.80
2022-08-24T06:46:22.138Z,4.63
2022-08-24T06:48:51.483Z,4.40
2022-08-24T06:51:26.590Z,4.03
2022-08-24T06:53:55.995Z,3.50
2022-08-24T06:56:25.745Z,3.28
2022-08-24T06:58:59.123Z,4.88
2022-08-24T07:01:28.636Z,3.72
2022-08-24T07:03:56.821Z,3.47
2022-08-24T07:06:58.669Z,3.70
2022-08-24T07:09:25.528Z,3.75
2022-08-24T07:11:55.513Z,3.20
2022-08-24T07:14:22.685Z,2.67
2022-08-24T07:16:55.123Z,3.45
2022-08-24T07:19:25.337Z,2.65
2022-08-24T07:21:56.535Z,3.38
2022-08-24T07:24:25.514Z,3.58
2022-08-24T07:26:52.933Z,3.13
2022-08-24T07:29:46.444Z,2.72
2022-08-24T07:32:10.230Z,3.38
2022-08-24T07:34:44.018Z,2.55
2022-08-24T07:37:11.691Z,3.22
2022-08-24T07:39:41.820Z,2.83
2022-08-24T07:42:14.959Z,2.42
2022-08-24T07:44:50.619Z,2.67
2022-08-24T07:50:09.586Z,2.60
2022-08-24T07:52:36.999Z,2.75
2022-08-24T07:55:07.193Z,3.45
2022-08-24T07:57:38.972Z,3.65
2022-08-24T08:00:11.350Z,2.75
2022-08-24T08:02:45.413Z,2.75
2022-08-24T08:05:16.028Z,3.28
2022-08-24T08:07:51.517Z,2.83
2022-08-24T08:10:23.379Z,2.50
2022-08-24T08:12:53.452Z,2.67
2022-08-24T08:15:20.388Z,2.50
2022-08-24T08:17:57.599Z,2.70
2022-08-24T08:20:26.762Z,2.70
2022-08-24T08:23:14.636Z,2.28
2022-08-24T08:25:57.536Z,2.60
2022-08-24T08:28:36.100Z,2.92
2022-08-24T08:31:04.997Z,3.00
2022-08-24T08:33:36.347Z,2.72
2022-08-24T08:36:12.517Z,2.58
2022-08-24T08:38:45.192Z,3.58
2022-08-24T08:41:31.476Z,3.15
2022-08-24T08:44:15.260Z,3.05
2022-08-24T08:47:11.925Z,2.83
2022-08-24T08:49:45.097Z,3.30
2022-08-24T08:52:33.911Z,2.78
2022-08-24T08:58:00.345Z,2.70
2022-08-24T09:00:42.882Z,2.90
2022-08-24T09:03:27.105Z,3.42
2022-08-24T09:06:42.556Z,3.30
2022-08-24T09:09:35.092Z,3.13
2022-08-24T09:12:29.010Z,2.70
2022-08-24T09:15:18.604Z,7.20
2022-08-24T09:18:00.445Z,8.52
2022-08-24T09:21:00.323Z,2.50
2022-08-24T09:23:42.315Z,3.10
2022-08-24T09:26:32.340Z,3.22
2022-08-24T09:29:13.870Z,2.47
2022-08-24T09:32:10.860Z,4.05
2022-08-24T09:34:57.181Z,3.10
2022-08-24T09:37:44.421Z,2.30
2022-08-24T09:40:34.384Z,8.38
2022-08-24T09:43:06.879Z,2.33
2022-08-24T09:45:40.439Z,2.53
2022-08-24T09:48:16.013Z,2.55
2022-08-24T09:51:19.470Z,3.83
2022-08-24T09:53:58.786Z,2.83
2022-08-24T09:57:11.745Z,2.67
2022-08-24T10:00:14.108Z,2.25
2022-08-24T10:02:49.512Z,2.72
2022-08-24T10:05:37.028Z,2.03
2022-08-24T10:08:42.577Z,3.65
2022-08-24T10:11:35.779Z,3.53
2022-08-24T10:14:20.844Z,2.35
2022-08-24T10:17:31.832Z,2.20
2022-08-24T10:20:11.118Z,12.63
2022-08-24T10:23:03.828Z,7.35
2022-08-24T10:26:07.177Z,4.80
2022-08-24T10:28:59.415Z,5.45
2022-08-24T10:31:34.305Z,4.57
2022-08-24T10:34:28.540Z,4.93
2022-08-24T10:37:00.024Z,4.85
2022-08-24T10:40:15.217Z,6.10
2022-08-24T10:43:11.320Z,6.22
2022-08-24T10:46:04.495Z,5.05
2022-08-24T10:48:33.387Z,5.93
2022-08-24T10:51:16.723Z,6.15
2022-08-24T10:53:49.622Z,8.20
2022-08-24T10:56:22.632Z,6.40
2022-08-24T10:59:07.680Z,5.40
2022-08-24T11:01:37.851Z,6.82
2022-08-24T11:04:05.348Z,6.60
2022-08-24T11:06:44.660Z,7.13
2022-08-24T11:09:19.466Z,7.40
2022-08-24T11:11:50.054Z,6.53
2022-08-24T11:14:16.771Z,5.70
2022-08-24T11:16:46.597Z,5.28
2022-08-24T11:19:37.803Z,4.63
2022-08-24T11:22:26.240Z,4.88
2022-08-24T11:24:54.666Z,4.65
2022-08-24T11:27:30.662Z,4.40
2022-08-24T11:30:03.272Z,4.63
2022-08-24T11:32:48.616Z,4.93
2022-08-24T11:35:23.731Z,4.55
2022-08-24T11:37:55.076Z,4.75
2022-08-24T11:40:27.131Z,4.47
2022-08-24T11:43:17.493Z,4.50
2022-08-24T11:46:00.055Z,3.83
2022-08-24T11:48:43.547Z,4.15
2022-08-24T11:51:32.371Z,4.25
2022-08-24T11:56:48.229Z,3.92
2022-08-24T11:59:23.470Z,4.63
2022-08-24T12:02:03.637Z,3.97
2022-08-24T12:04:44.987Z,4.32
2022-08-24T12:07:31.997Z,4.70
2022-08-24T12:09:58.732Z,4.93
2022-08-24T12:12:49.717Z,4.07
2022-08-24T12:15:39.741Z,3.28
2022-08-24T12:18:31.137Z,4.43
2022-08-24T12:21:03.495Z,3.50
2022-08-24T12:23:35.394Z,3.60
2022-08-24T12:26:07.855Z,3.13
2022-08-24T12:28:47.832Z,3.28
2022-08-24T12:31:23.694Z,4.18
2022-08-24T12:33:55.058Z,3.20
2022-08-24T12:36:29.608Z,2.78
2022-08-24T12:39:16.216Z,3.25
2022-08-24T12:41:57.729Z,3.30
2022-08-24T12:44:35.086Z,2.72
2022-08-24T12:47:02.926Z,2.70
2022-08-24T12:49:45.557Z,2.60
2022-08-24T12:52:48.198Z,2.35
2022-08-24T12:55:35.093Z,2.78
2022-08-24T13:01:06.424Z,2.53
2022-08-24T13:03:37.120Z,2.17
2022-08-24T13:06:13.871Z,2.40
2022-08-24T13:08:46.055Z,3.00
2022-08-24T13:11:30.897Z,2.30
2022-08-24T13:13:59.820Z,2.50
2022-08-24T13:16:50.524Z,2.35
2022-08-24T13:19:23.337Z,2.72
2022-08-24T13:22:15.867Z,2.03
2022-08-24T13:25:13.368Z,2.40
2022-08-24T13:27:42.313Z,2.00
2022-08-24T13:30:21.334Z,2.22
2022-08-24T13:32:57.456Z,2.17
2022-08-24T13:35:58.098Z,2.15
2022-08-24T13:38:30.927Z,1.83
2022-08-24T13:41:06.501Z,1.95
2022-08-24T13:43:40.783Z,2.33
2022-08-24T13:46:21.830Z,2.22
2022-08-24T13:49:12.848Z,1.88
2022-08-24T13:51:48.712Z,1.85
2022-08-24T13:54:40.445Z,2.47
2022-08-24T13:57:33.880Z,2.40
2022-08-24T14:00:26.610Z,1.85
2022-08-24T14:03:08.508Z,1.83
2022-08-24T14:05:57.880Z,1.95
2022-08-24T14:08:43.402Z,1.73
2022-08-24T14:11:14.845Z,1.35
2022-08-24T14:14:13.476Z,1.35
2022-08-24T14:17:05.023Z,1.42
2022-08-24T14:19:49.939Z,1.70
2022-08-24T14:22:37.931Z,2.13
2022-08-24T14:25:25.379Z,2.13
2022-08-24T14:28:30.388Z,2.70
2022-08-24T14:31:21.735Z,2.85
2022-08-24T14:33:57.961Z,3.33
2022-08-24T14:36:53.805Z,2.50
2022-08-24T14:39:37.448Z,2.53
2022-08-24T14:42:25.036Z,2.08
2022-08-24T14:45:01.702Z,3.00
2022-08-24T14:47:55.226Z,2.35
2022-08-24T14:50:45.267Z,2.25
2022-08-24T14:53:35.011Z,3.00
2022-08-24T14:56:14.531Z,2.70
2022-08-24T14:59:04.606Z,2.65
2022-08-24T15:01:40.498Z,2.03
2022-08-24T15:04:47.008Z,2.42
2022-08-24T15:07:30.164Z,2.78
2022-08-24T15:10:05.143Z,2.65
2022-08-24T15:12:50.547Z,2.13
2022-08-24T15:15:50.220Z,1.70
2022-08-24T15:18:20.221Z,1.75
2022-08-24T15:21:10.626Z,1.52
2022-08-24T15:24:10.414Z,1.33
2022-08-24T15:26:55.683Z,2.30
2022-08-24T15:29:30.492Z,2.22
2022-08-24T15:32:06.487Z,2.22
2022-08-24T15:34:45.606Z,2.38
2022-08-24T15:37:28.244Z,2.10
2022-08-24T15:40:00.176Z,2.40
2022-08-24T15:42:29.606Z,2.40
2022-08-24T15:45:03.725Z,2.60
2022-08-24T15:47:38.247Z,2.95
2022-08-24T15:50:26.156Z,3.53
2022-08-24T15:52:58.990Z,3.55
2022-08-24T15:55:41.159Z,2.45
2022-08-24T15:58:31.081Z,2.70
2022-08-24T16:01:28.732Z,2.90
2022-08-24T16:04:00.531Z,2.33
2022-08-24T16:06:32.642Z,2.85
2022-08-24T16:09:21.226Z,2.55
2022-08-24T16:11:57.255Z,2.72
2022-08-24T16:14:30.558Z,3.28
2022-08-24T16:17:01.801Z,2.50
2022-08-24T16:19:36.230Z,2.53
2022-08-24T16:22:10.621Z,2.63
2022-08-24T16:24:42.560Z,3.05
2022-08-24T16:27:15.838Z,7.88
2022-08-24T16:29:45.602Z,2.85
2022-08-24T16:32:30.518Z,2.90
2022-08-24T16:37:28.275Z,2.83
2022-08-24T16:39:55.534Z,2.80
2022-08-24T16:42:29.139Z,2.78
2022-08-24T16:44:57.774Z,3.10
2022-08-24T16:47:27.129Z,3.55
2022-08-24T16:49:56.271Z,3.40
2022-08-24T16:52:23.209Z,3.67
2022-08-24T16:54:52.420Z,3.85
2022-08-24T16:57:22.817Z,3.67
2022-08-24T16:59:51.771Z,4.20
2022-08-24T17:02:25.885Z,4.57
2022-08-24T17:04:56.513Z,4.05
2022-08-24T17:07:26.966Z,5.10
2022-08-24T17:09:57.092Z,3.67
2022-08-24T17:12:27.151Z,3.25
2022-08-24T17:14:56.502Z,3.08
2022-08-24T17:17:28.702Z,3.47
2022-08-24T17:19:58.620Z,7.50
2022-08-24T17:22:25.922Z,3.75
2022-08-24T17:24:54.922Z,4.03
2022-08-24T17:27:29.185Z,4.93
2022-08-24T17:29:58.382Z,4.18
2022-08-24T17:32:25.922Z,5.28
2022-08-24T17:34:53.177Z,4.25
2022-08-24T17:37:20.414Z,5.03
2022-08-24T17:39:52.488Z,4.57
2022-08-24T17:42:47.241Z,4.22
2022-08-24T17:45:14.308Z,3.72
2022-08-24T17:47:44.159Z,3.08
2022-08-24T17:50:12.823Z,3.42
2022-08-24T17:52:40.747Z,3.67
2022-08-24T17:55:11.888Z,3.58
2022-08-24T18:00:08.282Z,3.22
2022-08-24T18:02:39.595Z,3.53
2022-08-24T18:05:11.305Z,2.88
2022-08-24T18:07:53.031Z,4.13
2022-08-24T18:10:23.750Z,7.95
2022-08-24T18:12:54.208Z,5.35
2022-08-24T18:15:21.564Z,4.07
2022-08-24T18:17:58.156Z,3.38
2022-08-24T18:20:27.700Z,2.97
2022-08-24T18:22:57.665Z,3.80
2022-08-24T18:25:25.369Z,3.30
2022-08-24T18:27:55.728Z,4.10
2022-08-24T18:30:28.892Z,4.30
2022-08-24T18:33:01.984Z,4.22
2022-08-24T18:35:31.408Z,4.68
2022-08-24T18:37:58.369Z,4.15
2022-08-24T18:40:32.993Z,4.75
2022-08-24T18:43:05.871Z,4.80
2022-08-24T18:45:35.615Z,4.50
2022-08-24T18:48:06.404Z,5.00
2022-08-24T18:50:40.097Z,4.40
2022-08-24T18:53:13.237Z,5.68
2022-08-24T18:55:40.765Z,5.07
2022-08-24T18:58:07.680Z,6.55
2022-08-24T19:00:37.242Z,4.15
2022-08-24T19:03:08.064Z,4.93
2022-08-24T19:05:35.505Z,15.80
2022-08-24T19:08:02.473Z,4.80
2022-08-24T19:10:32.057Z,4.93
2022-08-24T19:13:18.390Z,5.38
2022-08-24T19:15:49.128Z,6.30
2022-08-24T19:18:17.667Z,5.57
2022-08-24T19:20:49.269Z,4.63
2022-08-24T19:23:24.122Z,4.55
2022-08-24T19:25:52.041Z,4.72
2022-08-24T19:28:26.413Z,4.20
2022-08-24T19:31:00.286Z,4.50
2022-08-24T19:33:31.809Z,4.78
2022-08-24T19:35:59.550Z,4.97
2022-08-24T19:38:26.698Z,4.72
2022-08-24T19:40:55.501Z,5.55
2022-08-24T19:43:28.013Z,5.15
2022-08-24T19:46:10.364Z,5.22
2022-08-24T19:48:42.551Z,5.35
2022-08-24T19:51:11.676Z,5.47
2022-08-24T19:53:43.782Z,5.20
2022-08-24T19:56:11.503Z,5.50
2022-08-24T19:58:50.490Z,5.18
2022-08-24T20:01:25.870Z,5.57
2022-08-24T20:03:53.724Z,5.47
2022-08-24T20:06:22.144Z,5.60
2022-08-24T20:08:49.148Z,5.18
2022-08-24T20:11:17.709Z,5.57
2022-08-24T20:13:44.626Z,4.32
2022-08-24T20:16:15.338Z,5.78
2022-08-24T20:18:44.923Z,5.65
2022-08-24T20:21:11.751Z,5.53
2022-08-24T20:23:39.032Z,5.55
2022-08-24T20:26:07.419Z,4.90
2022-08-24T20:28:42.433Z,5.80
2022-08-24T20:31:14.907Z,5.43
2022-08-24T20:33:47.345Z,4.85
2022-08-24T20:36:37.151Z,6.22
2022-08-24T20:39:06.552Z,5.72
2022-08-24T20:41:33.736Z,5.80
2022-08-24T20:44:09.266Z,5.50
2022-08-24T20:46:40.219Z,5.50
2022-08-24T20:49:15.265Z,5.47
2022-08-24T20:51:46.440Z,5.28
2022-08-24T20:54:14.684Z,5.70
2022-08-24T20:56:43.613Z,5.85
2022-08-24T20:59:12.231Z,5.97
2022-08-24T21:01:45.845Z,5.60
2022-08-24T21:04:13.494Z,5.68
2022-08-24T21:06:41.999Z,5.93
2022-08-24T21:09:10.408Z,5.75
2022-08-24T21:11:42.158Z,6.40
2022-08-24T21:14:11.093Z,6.70
2022-08-24T21:16:39.813Z,7.25
2022-08-24T21:19:10.590Z,5.85
2022-08-24T21:21:42.734Z,5.78
2022-08-24T21:24:10.417Z,5.50
2022-08-24T21:26:37.900Z,6.60
2022-08-24T21:29:08.572Z,6.53
2022-08-24T21:31:38.310Z,7.68
2022-08-24T21:34:24.349Z,6.50
2022-08-24T21:36:52.809Z,6.13
2022-08-24T21:39:21.401Z,6.40
2022-08-24T21:41:48.163Z,6.43
2022-08-24T21:44:15.027Z,6.35
2022-08-24T21:46:46.968Z,6.20
2022-08-24T21:49:13.830Z,7.15
2022-08-24T21:51:43.381Z,6.53
2022-08-24T21:54:10.770Z,7.60
2022-08-24T21:56:37.653Z,6.85
2022-08-24T21:59:07.279Z,6.43
2022-08-24T22:01:38.661Z,7.20
2022-08-24T22:04:06.037Z,6.53
2022-08-24T22:06:33.638Z,6.85
2022-08-24T22:09:01.663Z,7.45
2022-08-24T22:11:29.035Z,7.57
2022-08-24T22:13:55.946Z,6.25
2022-08-24T22:16:25.583Z,7.13
2022-08-24T22:18:52.809Z,6.45
2022-08-24T22:21:22.133Z,6.03
2022-08-24T22:23:49.362Z,5.93
2022-08-24T22:26:20.807Z,6.90
2022-08-24T22:28:49.703Z,5.70
2022-08-24T22:31:23.929Z,5.70
2022-08-24T22:33:54.784Z,6.22
2022-08-24T22:36:24.089Z,6.60
2022-08-24T22:38:51.444Z,5.85
2022-08-24T22:41:18.923Z,7.22
2022-08-24T22:44:04.222Z,6.47
2022-08-24T22:46:31.049Z,6.47
2022-08-24T22:48:57.941Z,6.55
2022-08-24T22:51:25.139Z,6.60
2022-08-24T22:53:53.007Z,6.75
2022-08-24T22:56:22.339Z,6.03
2022-08-24T22:58:56.398Z,6.32
2022-08-24T23:01:30.259Z,6.55
2022-08-24T23:04:03.375Z,6.00
2022-08-24T23:06:33.089Z,7.25
2022-08-24T23:09:00.011Z,6.18
2022-08-24T23:11:29.233Z,6.53
2022-08-24T23:13:57.534Z,6.85
2022-08-24T23:16:26.836Z,7.43
2022-08-24T23:19:12.196Z,7.05
2022-08-24T23:21:45.241Z,6.65
2022-08-24T23:24:12.682Z,6.40
2022-08-24T23:26:42.784Z,7.15
2022-08-24T23:29:11.235Z,6.78
2022-08-24T23:31:38.522Z,7.57
2022-08-24T23:34:08.051Z,6.93
2022-08-24T23:36:35.846Z,6.65
2022-08-24T23:39:02.778Z,6.95
2022-08-24T23:41:34.694Z,7.00
2022-08-24T23:44:03.453Z,6.90
2022-08-24T23:46:30.493Z,6.50
2022-08-24T23:48:59.607Z,6.30
2022-08-24T23:51:30.191Z,6.28
2022-08-24T23:53:59.881Z,7.18
2022-08-24T23:56:31.584Z,7.13
2022-08-24T23:59:11.053Z,6.70
